This is the latest recevied weather packets stored in our database for station/object SM2FXT-13. If no packets are shown the sender has not sent any weather packets the latest 10 day(s).
| Time | Temp. | Humidity | Pressure | Rain* | Wind** | Luminosity | Snow |
|---|---|---|---|---|---|---|---|
| 1778139004 | 11.11° C | 58% | 1013.7 hPa | 0 mm | - | - | - |
| 1778138403 | 11.67° C | 56% | 1013.6 hPa | 0 mm | - | - | - |
| 1778136003 | 11.11° C | 59% | 1013.4 hPa | 0 mm | - | - | - |
| 1778133003 | 11.11° C | 60% | 1013.2 hPa | 0 mm | - | - | - |
| 1778132404 | 11.67° C | 59% | 1013.2 hPa | 0 mm | - | - | - |
| 1778131204 | 11.11° C | 62% | 1013.2 hPa | 0 mm | - | - | - |
| 1778128204 | 9.44° C | 71% | 1013.1 hPa | 0 mm | - | - | - |
| 1778127603 | 8.33° C | 75% | 1013 hPa | 0 mm | - | - | - |
| 1778125803 | 5.56° C | 98% | 1013.1 hPa | 0 mm | - | - | - |
| 1778116204 | -2.22° C | 100% | 1012.6 hPa | 0 mm | - | - | - |
| 1778115004 | -1.67° C | 100% | 1012.5 hPa | 0 mm | - | - | - |
| 1778105402 | -0.56° C | 94% | 1011.7 hPa | 0 mm | - | - | - |
| 1778103603 | 0° C | 93% | 1011.4 hPa | 0 mm | - | - | - |
| 1778101204 | 1.11° C | 87% | 1011 hPa | 0 mm | - | - | - |
| 1778100002 | 1.67° C | 86% | 1010.9 hPa | 0 mm | - | - | - |
| 1778098803 | 2.22° C | 83% | 1010.8 hPa | 0 mm | - | - | - |
| 1778097002 | 3.33° C | 79% | 1010.6 hPa | 0 mm | - | - | - |
| 1778096402 | 3.89° C | 78% | 1010.6 hPa | 0 mm | - | - | - |
| 1778092203 | 6.67° C | 71% | 1010 hPa | 0 mm | - | - | - |
| 1778082003 | 8.33° C | 66% | 1009 hPa | 0 mm | - | - | - |
| 1778079003 | 12.22° C | 57% | 1008.4 hPa | 0 mm | - | - | - |
| 1778078403 | 11.11° C | 64% | 1008.4 hPa | 0 mm | - | - | - |
| 1778077803 | 8.89° C | 65% | 1008.5 hPa | 0 mm | - | - | - |
| 1778072404 | 9.44° C | 67% | 1008.4 hPa | 0 mm | - | - | - |
| 1778069403 | 11.11° C | 62% | 1008 hPa | 0 mm | - | - | - |
* Rain latest hour (hover to see other rain measurements)
** Current wind speed in m/s (hover to see current wind gust speed)